Time;durP1;ratioP1;P1;durP2;ratioP2;P2;SDS_P1;SDS_P2;PMS_P1;PMS_P2;Temp;Humidity;BMP_temperature;BMP_pressure;BME280_temperature;BME280_humidity;BME280_pressure;Samples;Min_cycle;Max_cycle;Signal;HPM_P1;HPM_P2
2024/01/19 00:00:01;;;;;;;11.27;6.88;;;1.00;99.90;;;;;;5097933;28;20024;-67
2024/01/19 00:02:26;;;;;;;7.72;5.70;;;1.10;99.90;;;;;;5097453;28;20053;-66
2024/01/19 00:04:52;;;;;;;11.15;6.85;;;1.00;99.90;;;;;;5097359;28;20390;-66
2024/01/19 00:07:18;;;;;;;10.60;6.63;;;1.10;99.90;;;;;;5097235;28;20021;-66
2024/01/19 00:09:43;;;;;;;10.50;6.55;;;1.00;99.90;;;;;;5097163;28;20456;-66
2024/01/19 00:12:09;;;;;;;10.98;6.20;;;1.00;99.90;;;;;;5097216;28;20067;-66
2024/01/19 00:14:34;;;;;;;7.70;6.15;;;1.00;99.90;;;;;;5095556;28;20119;-66
2024/01/19 00:17:00;;;;;;;8.00;5.90;;;1.00;99.90;;;;;;5096863;28;20059;-66
2024/01/19 00:19:26;;;;;;;13.50;5.55;;;1.10;99.90;;;;;;5095189;28;20027;-66
2024/01/19 00:21:51;;;;;;;10.27;6.13;;;1.00;99.90;;;;;;5096727;28;20078;-66
2024/01/19 00:24:17;;;;;;;9.05;5.63;;;1.00;99.90;;;;;;5095386;28;20028;-66
2024/01/19 00:26:44;;;;;;;8.98;6.07;;;1.00;99.90;;;;;;5096846;28;20035;-66
2024/01/19 00:29:10;;;;;;;10.00;5.70;;;1.00;99.90;;;;;;5096640;28;20027;-66
2024/01/19 00:31:37;;;;;;;9.73;5.78;;;1.00;99.90;;;;;;5096541;28;20103;-66
2024/01/19 00:34:02;;;;;;;8.40;5.47;;;1.00;99.90;;;;;;5095188;28;20086;-66
2024/01/19 00:36:28;;;;;;;10.93;6.13;;;1.00;99.90;;;;;;5096631;28;20398;-66
2024/01/19 00:38:54;;;;;;;9.50;5.95;;;1.00;99.90;;;;;;5096557;28;20047;-66
2024/01/19 00:41:20;;;;;;;11.10;5.95;;;1.00;99.90;;;;;;5096107;28;20031;-66
2024/01/19 00:43:46;;;;;;;10.63;5.95;;;1.00;99.90;;;;;;5096333;28;20097;-66
2024/01/19 00:46:12;;;;;;;11.50;6.00;;;1.00;99.90;;;;;;5096361;28;20063;-66
2024/01/19 00:48:37;;;;;;;9.32;6.03;;;1.00;99.90;;;;;;5096655;28;20524;-66
2024/01/19 00:51:04;;;;;;;9.52;5.72;;;0.90;99.90;;;;;;5095013;28;20020;-66
2024/01/19 00:53:29;;;;;;;10.50;6.25;;;0.90;99.90;;;;;;5094862;28;20048;-66
2024/01/19 00:55:55;;;;;;;13.50;6.88;;;0.90;99.90;;;;;;5096387;28;20035;-66
2024/01/19 00:58:21;;;;;;;10.23;6.50;;;0.90;99.90;;;;;;5096186;28;20024;-66
2024/01/19 01:00:46;;;;;;;11.48;6.55;;;1.20;99.90;;;;;;5094749;28;20032;-66
2024/01/19 01:03:22;;;;;;;8.77;5.93;;;0.90;99.90;;;;;;5094710;28;20448;-66
2024/01/19 01:05:48;;;;;;;12.30;6.05;;;0.90;99.90;;;;;;5095984;28;20056;-66
2024/01/19 01:08:13;;;;;;;11.95;6.28;;;0.90;99.90;;;;;;5095599;28;20431;-66
2024/01/19 01:10:39;;;;;;;10.98;6.50;;;0.90;99.90;;;;;;5095808;28;20032;-66
2024/01/19 01:13:05;;;;;;;8.57;5.60;;;0.90;99.90;;;;;;5094640;28;20025;-65
2024/01/19 01:15:30;;;;;;;10.02;5.55;;;0.90;99.90;;;;;;5094063;28;20467;-66
2024/01/19 01:17:56;;;;;;;9.68;5.90;;;0.80;99.90;;;;;;5095371;28;20039;-66
2024/01/19 01:20:21;;;;;;;8.32;5.63;;;0.90;99.90;;;;;;5095594;28;20020;-65
2024/01/19 01:22:47;;;;;;;9.73;5.25;;;0.80;99.90;;;;;;5093972;28;20396;-65
2024/01/19 01:25:13;;;;;;;11.98;5.68;;;0.80;99.90;;;;;;5094992;28;20081;-65
2024/01/19 01:27:38;;;;;;;7.65;5.45;;;0.80;99.90;;;;;;5095285;28;20116;-66
2024/01/19 01:30:07;;;;;;;13.40;6.90;;;0.80;99.90;;;;;;5094182;28;20020;-65
2024/01/19 01:32:33;;;;;;;8.48;5.43;;;0.80;99.90;;;;;;5095522;28;20032;-66
2024/01/19 01:34:59;;;;;;;8.52;5.28;;;0.80;99.90;;;;;;5093707;28;20024;-66
2024/01/19 01:37:25;;;;;;;9.27;5.03;;;0.80;99.90;;;;;;5093970;28;20024;-65
2024/01/19 01:39:50;;;;;;;11.35;6.03;;;0.70;99.90;;;;;;5093946;28;20024;-65
2024/01/19 01:42:16;;;;;;;9.57;5.20;;;0.70;99.90;;;;;;5095454;28;20024;-65
2024/01/19 01:44:42;;;;;;;9.32;5.40;;;0.70;99.90;;;;;;5093884;28;20028;-65
2024/01/19 01:47:07;;;;;;;9.77;5.05;;;0.80;99.90;;;;;;5093810;28;20082;-66
2024/01/19 01:49:33;;;;;;;10.93;5.60;;;0.70;99.90;;;;;;5095066;28;20426;-65
2024/01/19 01:51:59;;;;;;;8.05;5.05;;;0.70;99.90;;;;;;5094775;28;20430;-66
2024/01/19 01:54:25;;;;;;;8.15;5.00;;;0.70;99.90;;;;;;5077492;28;20049;-65
2024/01/19 01:56:51;;;;;;;8.70;5.03;;;0.70;99.90;;;;;;5075264;28;20025;-66
2024/01/19 01:59:19;;;;;;;9.75;5.07;;;0.70;99.90;;;;;;5056796;28;20120;-65
2024/01/19 02:01:45;;;;;;;9.50;5.22;;;0.60;99.90;;;;;;5056588;28;20362;-65
2024/01/19 02:04:12;;;;;;;8.73;4.88;;;0.70;99.90;;;;;;5074249;28;20388;-65
2024/01/19 02:06:38;;;;;;;11.55;4.07;;;0.70;99.90;;;;;;5074447;28;20025;-65
2024/01/19 02:09:05;;;;;;;8.75;3.97;;;0.70;99.90;;;;;;5056586;28;20024;-66
2024/01/19 02:11:31;;;;;;;4.35;3.58;;;0.70;99.90;;;;;;5056460;28;20028;-65
2024/01/19 02:13:57;;;;;;;3.83;3.35;;;0.70;99.90;;;;;;5074274;28;20051;-65
2024/01/19 02:16:22;;;;;;;6.32;3.65;;;0.90;99.90;;;;;;5074310;28;20035;-65
2024/01/19 02:18:48;;;;;;;7.18;3.58;;;0.70;99.90;;;;;;5074122;28;20020;-65
2024/01/19 02:21:14;;;;;;;6.03;3.85;;;0.70;99.90;;;;;;5074070;28;20357;-65
2024/01/19 02:24:02;;;;;;;7.43;3.70;;;0.70;99.90;;;;;;5057049;28;20444;-65
2024/01/19 02:26:34;;;;;;;6.20;2.83;;;0.70;99.90;;;;;;5074179;28;20029;-65
2024/01/19 02:29:00;;;;;;;6.63;3.08;;;0.70;99.90;;;;;;5056452;28;20262;-65
2024/01/19 02:31:25;;;;;;;6.68;3.47;;;0.70;99.90;;;;;;5056129;28;20376;-65
2024/01/19 02:33:51;;;;;;;5.55;2.85;;;0.70;99.90;;;;;;5073646;28;20047;-65
2024/01/19 02:36:17;;;;;;;4.03;2.97;;;0.70;99.90;;;;;;5056054;28;20123;-65
2024/01/19 02:38:43;;;;;;;4.45;2.85;;;0.70;99.90;;;;;;5074030;28;20028;-65
2024/01/19 02:41:09;;;;;;;3.58;2.63;;;0.70;99.90;;;;;;5074242;28;20070;-66
2024/01/19 02:43:35;;;;;;;6.30;3.10;;;0.70;99.90;;;;;;5073640;28;20487;-65
2024/01/19 02:46:00;;;;;;;6.78;3.90;;;0.70;99.90;;;;;;5073889;28;20031;-65
2024/01/19 02:48:26;;;;;;;8.38;3.08;;;0.60;99.90;;;;;;5073717;28;20036;-65
2024/01/19 02:50:52;;;;;;;6.15;3.78;;;0.70;99.90;;;;;;5055909;28;20029;-65
2024/01/19 02:53:17;;;;;;;6.75;3.10;;;0.60;99.90;;;;;;5068777;28;20104;-66
2024/01/19 02:55:43;;;;;;;12.70;3.45;;;0.60;99.90;;;;;;5092642;28;20036;-65
2024/01/19 02:58:09;;;;;;;4.72;3.03;;;0.60;99.90;;;;;;5094058;28;20490;-66
2024/01/19 03:00:34;;;;;;;6.80;3.50;;;0.60;99.90;;;;;;5093723;28;20032;-65
2024/01/19 03:03:00;;;;;;;6.53;3.45;;;0.70;99.90;;;;;;5093976;28;20025;-66
2024/01/19 03:05:26;;;;;;;4.93;2.90;;;0.60;99.90;;;;;;5092657;28;20031;-65
2024/01/19 03:07:51;;;;;;;9.38;3.33;;;0.60;99.90;;;;;;5093860;28;20103;-65
2024/01/19 03:10:17;;;;;;;5.82;3.47;;;0.60;99.90;;;;;;5093799;28;20030;-65
2024/01/19 03:12:42;;;;;;;5.10;2.70;;;0.70;99.90;;;;;;5093559;28;20375;-65
2024/01/19 03:15:08;;;;;;;7.35;3.35;;;0.60;99.90;;;;;;5092628;28;20038;-65
2024/01/19 03:17:34;;;;;;;4.43;2.83;;;0.60;99.90;;;;;;5092510;28;20494;-65
2024/01/19 03:20:00;;;;;;;5.85;3.13;;;0.60;99.90;;;;;;5093492;28;20025;-65
2024/01/19 03:22:27;;;;;;;5.65;3.00;;;0.60;99.90;;;;;;5093525;28;20020;-65
2024/01/19 03:24:53;;;;;;;7.45;3.05;;;0.60;99.90;;;;;;5093492;28;20036;-65
2024/01/19 03:27:19;;;;;;;5.60;3.17;;;0.70;99.90;;;;;;5093675;28;20108;-65
2024/01/19 03:29:44;;;;;;;8.77;2.97;;;0.70;99.90;;;;;;5093665;28;20024;-65
2024/01/19 03:32:10;;;;;;;4.93;2.47;;;0.70;99.90;;;;;;5097201;28;20035;-65
2024/01/19 03:34:36;;;;;;;4.28;2.80;;;0.70;99.90;;;;;;5097639;28;20036;-65
2024/01/19 03:37:03;;;;;;;6.18;2.75;;;0.70;99.90;;;;;;5097343;28;20027;-65
2024/01/19 03:39:32;;;;;;;6.40;2.92;;;0.70;99.90;;;;;;5097581;28;20028;-65
2024/01/19 03:41:58;;;;;;;4.53;2.00;;;0.70;99.90;;;;;;5097548;28;20133;-65
2024/01/19 03:44:24;;;;;;;7.35;2.88;;;0.60;99.90;;;;;;5095920;28;20036;-65
2024/01/19 03:46:51;;;;;;;4.88;2.75;;;0.60;99.90;;;;;;5097450;28;20059;-65
2024/01/19 03:49:17;;;;;;;4.75;2.83;;;0.60;99.90;;;;;;5097446;28;20081;-65
2024/01/19 03:51:58;;;;;;;7.18;2.25;;;0.60;99.90;;;;;;5096307;28;20024;-66
2024/01/19 03:54:24;;;;;;;6.45;2.45;;;0.60;99.90;;;;;;5079927;28;20122;-65
2024/01/19 03:56:49;;;;;;;7.45;2.60;;;0.60;99.90;;;;;;5077013;28;20060;-65
2024/01/19 03:59:15;;;;;;;6.65;2.60;;;0.60;99.90;;;;;;5059042;28;20032;-65
2024/01/19 04:01:41;;;;;;;5.00;2.80;;;0.60;99.90;;;;;;5076844;28;20028;-65
2024/01/19 04:04:07;;;;;;;9.25;3.03;;;;;;;;;;5076850;28;20031;-65
2024/01/19 04:06:32;;;;;;;6.50;3.00;;;0.60;99.90;;;;;;5076533;28;20024;-65
2024/01/19 04:08:58;;;;;;;12.48;3.53;;;0.60;99.90;;;;;;5058884;28;20036;-65
2024/01/19 04:11:24;;;;;;;6.07;2.20;;;0.60;99.90;;;;;;5058821;28;20078;-65
2024/01/19 04:13:49;;;;;;;4.10;2.53;;;0.60;99.90;;;;;;5076572;28;20427;-65
2024/01/19 04:16:15;;;;;;;4.78;2.83;;;0.60;99.90;;;;;;5076605;28;20452;-65
2024/01/19 04:18:41;;;;;;;6.40;2.15;;;0.60;99.90;;;;;;5058634;28;20024;-65
2024/01/19 04:21:06;;;;;;;5.40;2.50;;;0.60;99.90;;;;;;5058631;28;20111;-65
2024/01/19 04:23:32;;;;;;;5.78;2.88;;;0.60;99.90;;;;;;5058603;28;20029;-65
2024/01/19 04:25:58;;;;;;;4.78;2.63;;;0.60;99.90;;;;;;5076174;28;20029;-65
2024/01/19 04:28:23;;;;;;;5.15;2.47;;;0.60;99.90;;;;;;5076165;28;20025;-65
2024/01/19 04:30:49;;;;;;;6.40;2.65;;;0.80;99.90;;;;;;5076653;28;20431;-65
2024/01/19 04:33:14;;;;;;;4.32;2.10;;;0.60;99.90;;;;;;5058407;28;20031;-65
2024/01/19 04:35:40;;;;;;;5.82;2.90;;;0.60;99.90;;;;;;5058355;28;20043;-65
2024/01/19 04:38:06;;;;;;;7.35;2.33;;;0.60;99.90;;;;;;5076705;28;20021;-65
2024/01/19 04:40:31;;;;;;;5.10;2.33;;;0.60;99.90;;;;;;5058375;28;20028;-65
2024/01/19 04:42:57;;;;;;;8.18;3.33;;;0.60;99.90;;;;;;5057841;28;20024;-65
2024/01/19 04:45:23;;;;;;;9.73;2.58;;;0.60;99.90;;;;;;5075952;28;20086;-65
2024/01/19 04:47:48;;;;;;;4.25;2.30;;;0.60;99.90;;;;;;5076059;28;20025;-65
2024/01/19 04:50:14;;;;;;;4.55;2.03;;;0.60;99.90;;;;;;5076001;28;20025;-65
2024/01/19 04:52:40;;;;;;;3.78;2.05;;;0.60;99.90;;;;;;5057726;28;20127;-65
2024/01/19 04:55:06;;;;;;;4.90;1.70;;;0.60;99.90;;;;;;5076015;28;20403;-65
2024/01/19 04:57:31;;;;;;;3.50;2.25;;;0.60;99.90;;;;;;5075824;28;20074;-65
2024/01/19 04:59:57;;;;;;;8.50;2.40;;;0.60;99.90;;;;;;5075682;28;20499;-65
2024/01/19 05:02:23;;;;;;;2.47;1.83;;;0.60;99.90;;;;;;5075787;28;20024;-65
2024/01/19 05:04:48;;;;;;;9.60;1.65;;;0.60;99.90;;;;;;5075718;28;20353;-65
2024/01/19 05:07:14;;;;;;;4.07;1.73;;;0.60;99.90;;;;;;5057638;28;20028;-65
2024/01/19 05:09:40;;;;;;;3.95;1.77;;;0.60;99.90;;;;;;5075329;28;20107;-65
2024/01/19 05:12:06;;;;;;;4.13;1.92;;;0.60;99.90;;;;;;5075780;28;20024;-65
2024/01/19 05:14:32;;;;;;;2.95;1.70;;;0.60;99.90;;;;;;5075174;28;20033;-65
2024/01/19 05:16:58;;;;;;;2.55;1.60;;;0.60;99.90;;;;;;5075237;28;20074;-65
2024/01/19 05:19:23;;;;;;;2.38;1.20;;;0.50;99.90;;;;;;5075121;28;20021;-65
2024/01/19 05:21:49;;;;;;;5.78;1.90;;;0.70;99.90;;;;;;5075384;28;20021;-65
2024/01/19 05:24:14;;;;;;;3.28;1.80;;;0.60;99.90;;;;;;5075312;28;20074;-66
2024/01/19 05:26:40;;;;;;;1.85;1.30;;;0.60;99.90;;;;;;5075537;28;20032;-65
2024/01/19 05:29:06;;;;;;;5.15;1.50;;;0.60;99.90;;;;;;5075264;28;20036;-65
2024/01/19 05:31:31;;;;;;;7.20;1.50;;;0.60;99.90;;;;;;5057226;28;20078;-65
2024/01/19 05:33:57;;;;;;;3.13;1.75;;;0.50;99.90;;;;;;5075042;28;20131;-65
2024/01/19 05:36:23;;;;;;;4.85;2.00;;;0.60;99.90;;;;;;5075869;28;20341;-65
2024/01/19 05:38:49;;;;;;;3.60;1.60;;;0.60;99.90;;;;;;5057087;28;20025;-65
2024/01/19 05:41:19;;;;;;;3.33;1.35;;;0.50;99.90;;;;;;5056984;28;20377;-65
2024/01/19 05:43:45;;;;;;;2.95;1.30;;;0.50;99.90;;;;;;5056941;28;20020;-65
2024/01/19 05:46:13;;;;;;;5.55;1.23;;;0.50;99.90;;;;;;5074847;28;20156;-65
2024/01/19 05:48:38;;;;;;;3.33;1.20;;;0.50;99.90;;;;;;5074853;28;20025;-65
2024/01/19 05:51:09;;;;;;;3.85;1.50;;;0.50;99.90;;;;;;5075281;28;20021;-65
2024/01/19 05:53:35;;;;;;;4.95;1.55;;;0.50;99.90;;;;;;5074542;28;20055;-65
2024/01/19 05:56:00;;;;;;;2.35;1.40;;;0.60;99.90;;;;;;5074077;28;20099;-65
2024/01/19 05:58:26;;;;;;;3.15;1.23;;;0.50;99.90;;;;;;5074355;28;20031;-65
2024/01/19 06:00:52;;;;;;;6.03;2.72;;;0.50;99.90;;;;;;5056356;28;20111;-65
2024/01/19 06:03:17;;;;;;;2.38;1.98;;;0.60;99.90;;;;;;5074474;28;20036;-65
2024/01/19 06:05:43;;;;;;;5.63;1.77;;;0.50;99.90;;;;;;5074523;28;20524;-66
2024/01/19 06:08:09;;;;;;;4.72;1.52;;;0.50;99.90;;;;;;5074213;28;20107;-65
2024/01/19 06:10:34;;;;;;;3.17;1.40;;;0.50;99.90;;;;;;5074354;28;20029;-65
2024/01/19 06:13:00;;;;;;;7.47;1.30;;;0.50;99.90;;;;;;5056572;28;20476;-66
2024/01/19 06:15:26;;;;;;;1.67;1.13;;;0.50;99.90;;;;;;5074244;28;20111;-65
2024/01/19 06:17:51;;;;;;;5.07;1.70;;;0.50;99.90;;;;;;5056305;28;20475;-65
2024/01/19 06:20:17;;;;;;;5.18;1.63;;;0.50;99.90;;;;;;5073984;28;20063;-65
2024/01/19 06:22:43;;;;;;;4.00;1.77;;;0.70;99.90;;;;;;5074402;28;20024;-66
2024/01/19 06:25:09;;;;;;;3.67;1.85;;;0.70;99.90;;;;;;5055987;28;20028;-65
2024/01/19 06:27:35;;;;;;;5.00;1.65;;;0.50;99.90;;;;;;5056252;28;20028;-65
2024/01/19 06:30:01;;;;;;;3.17;1.80;;;0.50;99.90;;;;;;5056190;28;20033;-65
2024/01/19 06:32:26;;;;;;;5.88;2.50;;;0.60;99.90;;;;;;5074066;28;20082;-65
2024/01/19 06:34:52;;;;;;;8.93;2.53;;;0.50;99.90;;;;;;5073708;28;20029;-65
2024/01/19 06:37:18;;;;;;;3.72;2.00;;;0.50;99.90;;;;;;5073742;28;20090;-65
2024/01/19 06:39:46;;;;;;;7.78;2.80;;;0.50;99.90;;;;;;5056601;28;20032;-66
2024/01/19 06:42:13;;;;;;;5.40;2.45;;;0.40;99.90;;;;;;5073943;28;20078;-65
2024/01/19 06:44:42;;;;;;;7.88;3.58;;;0.40;99.90;;;;;;5074029;28;20036;-66
2024/01/19 06:47:08;;;;;;;4.00;2.05;;;0.40;99.90;;;;;;5056109;28;20491;-65
2024/01/19 06:49:33;;;;;;;6.60;3.35;;;0.50;99.90;;;;;;5073785;28;20029;-64
2024/01/19 06:51:59;;;;;;;9.32;3.10;;;0.50;99.90;;;;;;5074025;28;20035;-64
2024/01/19 06:54:25;;;;;;;4.22;2.17;;;0.40;99.90;;;;;;5074096;28;20036;-65
2024/01/19 06:56:51;;;;;;;8.98;3.80;;;0.40;99.90;;;;;;5073484;28;20040;-65
2024/01/19 06:59:16;;;;;;;10.77;3.25;;;0.40;99.90;;;;;;5073836;28;20032;-64
2024/01/19 07:01:42;;;;;;;7.43;3.42;;;0.40;99.90;;;;;;5073903;28;20024;-65
2024/01/19 07:04:07;;;;;;;6.88;3.92;;;0.40;99.90;;;;;;5073997;28;20036;-65
2024/01/19 07:06:33;;;;;;;8.65;3.40;;;0.40;99.90;;;;;;5073473;28;20036;-65
2024/01/19 07:08:59;;;;;;;7.60;3.97;;;0.40;99.90;;;;;;5073935;28;20028;-64
2024/01/19 07:11:25;;;;;;;4.35;2.80;;;0.40;99.90;;;;;;5055732;28;20035;-65
2024/01/19 07:13:51;;;;;;;4.97;2.80;;;0.60;99.90;;;;;;5055567;28;20384;-65
2024/01/19 07:16:17;;;;;;;4.53;2.60;;;0.60;99.90;;;;;;5074219;28;20032;-65
2024/01/19 07:18:42;;;;;;;5.50;2.58;;;0.50;99.90;;;;;;5055635;28;20487;-64
2024/01/19 07:21:08;;;;;;;4.90;2.78;;;0.50;99.90;;;;;;5073533;28;20024;-64
2024/01/19 07:23:35;;;;;;;9.45;3.70;;;0.50;99.90;;;;;;5074013;28;20039;-65
2024/01/19 07:26:00;;;;;;;6.18;2.85;;;0.50;99.90;;;;;;5073271;28;20523;-65
2024/01/19 07:28:26;;;;;;;8.25;3.55;;;0.50;99.90;;;;;;5055537;28;20112;-64
2024/01/19 07:30:51;;;;;;;5.50;2.58;;;0.60;99.90;;;;;;5055499;28;20456;-65
2024/01/19 07:33:17;;;;;;;7.45;2.78;;;0.60;99.90;;;;;;5073512;28;20028;-64
2024/01/19 07:35:43;;;;;;;2.97;2.25;;;0.60;99.90;;;;;;5073329;28;20028;-65
2024/01/19 07:38:09;;;;;;;7.03;2.60;;;0.50;99.90;;;;;;5073420;28;20028;-65
2024/01/19 07:40:34;;;;;;;4.68;2.58;;;0.50;99.90;;;;;;5073355;28;20410;-65
2024/01/19 07:43:00;;;;;;;8.82;2.53;;;0.50;99.90;;;;;;5055369;28;20114;-64
2024/01/19 07:45:25;;;;;;;4.88;2.63;;;0.50;99.90;;;;;;5073419;28;20039;-64
2024/01/19 07:47:51;;;;;;;6.72;3.08;;;0.50;99.90;;;;;;5073315;28;20028;-65
2024/01/19 07:50:17;;;;;;;5.22;2.97;;;0.50;99.90;;;;;;5055283;28;20452;-64
2024/01/19 07:52:43;;;;;;;6.57;2.38;;;0.50;99.90;;;;;;5073228;28;20411;-64
2024/01/19 07:55:08;;;;;;;5.03;2.50;;;0.60;99.90;;;;;;5073220;28;20089;-64
2024/01/19 07:57:34;;;;;;;6.13;2.92;;;0.60;99.90;;;;;;5073557;28;20025;-64
2024/01/19 07:59:59;;;;;;;8.82;3.35;;;0.60;99.90;;;;;;5054887;28;20025;-65
2024/01/19 08:02:26;;;;;;;9.77;3.53;;;0.60;99.90;;;;;;5055233;28;20021;-64
2024/01/19 08:04:51;;;;;;;5.40;2.88;;;0.60;99.90;;;;;;5073458;28;20025;-65
2024/01/19 08:07:17;;;;;;;6.35;3.53;;;0.70;99.90;;;;;;5073181;28;20512;-64
2024/01/19 08:09:43;;;;;;;7.45;3.15;;;0.60;99.90;;;;;;5073365;28;20020;-64
2024/01/19 08:12:08;;;;;;;8.57;3.40;;;0.60;99.90;;;;;;5073384;28;20024;-64
2024/01/19 08:14:34;;;;;;;7.57;3.10;;;0.70;99.90;;;;;;5072707;28;20062;-64
2024/01/19 08:16:59;;;;;;;7.40;3.38;;;0.60;99.90;;;;;;5072789;28;20077;-64
2024/01/19 08:19:25;;;;;;;4.72;2.75;;;0.70;99.90;;;;;;5076294;28;20024;-65
2024/01/19 08:21:51;;;;;;;5.80;3.00;;;0.70;99.90;;;;;;5058623;28;20031;-65
2024/01/19 08:24:16;;;;;;;6.68;3.47;;;0.70;99.90;;;;;;5076675;28;20028;-64
2024/01/19 08:26:49;;;;;;;7.15;3.50;;;0.70;99.90;;;;;;5076641;28;20366;-64
2024/01/19 08:29:15;;;;;;;4.93;3.10;;;0.70;99.90;;;;;;5058429;28;20021;-64
2024/01/19 08:31:43;;;;;;;5.38;3.63;;;0.80;99.90;;;;;;5076395;28;20025;-65
2024/01/19 08:34:11;;;;;;;6.38;3.25;;;0.70;99.90;;;;;;5076471;28;20029;-64
2024/01/19 08:36:41;;;;;;;8.55;3.72;;;0.70;99.90;;;;;;5076285;28;20028;-65
2024/01/19 08:39:09;;;;;;;6.63;3.28;;;0.70;99.90;;;;;;5076258;28;20483;-64
2024/01/19 08:41:43;;;;;;;5.03;3.30;;;0.70;99.90;;;;;;5076305;28;20020;-64
2024/01/19 08:44:10;;;;;;;7.03;3.40;;;0.70;99.90;;;;;;5076225;28;20108;-64
2024/01/19 08:46:44;;;;;;;6.13;3.10;;;0.60;99.90;;;;;;5076137;28;20025;-64
2024/01/19 08:49:11;;;;;;;6.80;3.50;;;0.80;99.90;;;;;;5076075;28;20021;-64
2024/01/19 08:51:37;;;;;;;6.20;3.58;;;0.80;99.90;;;;;;5076314;28;20029;-64
2024/01/19 08:54:03;;;;;;;5.65;3.25;;;0.80;99.90;;;;;;5075865;28;20048;-65
2024/01/19 08:56:29;;;;;;;7.55;2.88;;;0.80;99.90;;;;;;5058318;28;20422;-64
2024/01/19 08:58:57;;;;;;;5.90;3.20;;;0.90;99.90;;;;;;5076236;28;20405;-65
2024/01/19 09:01:23;;;;;;;7.63;3.22;;;0.90;99.90;;;;;;5076106;28;20020;-65
2024/01/19 09:03:49;;;;;;;5.95;3.63;;;0.90;99.90;;;;;;5058201;28;20031;-64
2024/01/19 09:06:14;;;;;;;12.10;3.78;;;1.00;99.90;;;;;;5075876;28;20086;-64
2024/01/19 09:08:42;;;;;;;7.88;3.88;;;1.00;99.90;;;;;;5075577;28;20020;-65
2024/01/19 09:11:11;;;;;;;14.93;3.83;;;1.00;99.90;;;;;;5075580;28;20111;-65
2024/01/19 09:13:37;;;;;;;16.60;4.68;;;1.10;99.90;;;;;;5075542;28;20029;-64
2024/01/19 09:16:09;;;;;;;7.13;3.75;;;1.10;99.90;;;;;;5075681;28;20017;-64
2024/01/19 09:18:36;;;;;;;6.03;3.70;;;1.10;99.90;;;;;;5075509;28;20020;-64
2024/01/19 09:21:02;;;;;;;9.50;3.95;;;1.10;99.90;;;;;;5075392;28;20039;-64
2024/01/19 09:23:28;;;;;;;11.35;3.55;;;1.10;99.90;;;;;;5075336;28;20035;-64
2024/01/19 09:25:53;;;;;;;9.13;3.08;;;1.10;99.90;;;;;;5075593;28;20028;-65
2024/01/19 09:28:19;;;;;;;6.55;3.92;;;1.00;99.90;;;;;;5075176;28;20056;-64
2024/01/19 09:30:44;;;;;;;9.70;3.85;;;1.10;99.90;;;;;;5075244;28;20536;-64
2024/01/19 09:33:10;;;;;;;8.75;3.67;;;1.10;99.90;;;;;;5075226;28;20096;-70
2024/01/19 09:35:37;;;;;;;4.72;3.25;;;1.10;99.90;;;;;;5074765;28;20067;-66
2024/01/19 09:38:02;;;;;;;5.85;3.20;;;1.00;99.90;;;;;;5057107;28;20086;-65
2024/01/19 09:40:28;;;;;;;9.88;3.50;;;1.00;99.90;;;;;;5074990;28;20020;-65
2024/01/19 09:42:57;;;;;;;10.35;3.83;;;1.00;99.90;;;;;;5074636;28;20024;-65
2024/01/19 09:45:34;;;;;;;8.35;3.35;;;1.10;99.90;;;;;;5057105;28;20028;-65
2024/01/19 09:48:26;;;;;;;9.82;3.67;;;1.10;99.90;;;;;;5074906;28;20029;-64
2024/01/19 09:50:53;;;;;;;6.25;3.65;;;1.30;99.90;;;;;;5074787;28;20027;-65
2024/01/19 09:53:32;;;;;;;7.97;3.83;;;1.40;99.90;;;;;;5069725;28;20055;-65
2024/01/19 09:56:00;;;;;;;5.75;3.45;;;1.30;99.90;;;;;;5094045;28;20036;-65
2024/01/19 09:58:30;;;;;;;7.00;3.38;;;1.30;99.90;;;;;;5095203;28;20024;-65
2024/01/19 10:00:56;;;;;;;9.38;3.60;;;1.30;99.90;;;;;;5094935;28;20081;-65
2024/01/19 10:03:23;;;;;;;5.93;3.17;;;1.30;99.90;;;;;;5095131;28;20028;-65
2024/01/19 10:05:51;;;;;;;7.85;2.97;;;1.30;99.90;;;;;;5094550;28;20475;-64
2024/01/19 10:08:17;;;;;;;8.80;3.87;;;1.20;99.90;;;;;;5092273;28;20420;-65
2024/01/19 10:10:44;;;;;;;4.53;2.97;;;1.20;99.90;;;;;;5095693;28;20482;-65
2024/01/19 10:13:11;;;;;;;5.20;2.92;;;1.20;99.90;;;;;;5115090;28;20055;-65
2024/01/19 10:15:36;;;;;;;6.28;3.63;;;1.30;99.90;;;;;;5114537;28;20494;-65
2024/01/19 10:18:05;;;;;;;6.40;3.10;;;1.30;99.90;;;;;;5115117;28;20023;-65
2024/01/19 10:20:31;;;;;;;7.13;3.08;;;1.30;99.90;;;;;;5114924;28;20371;-64
2024/01/19 10:23:16;;;;;;;11.48;3.72;;;1.30;99.90;;;;;;5114986;28;20039;-65
2024/01/19 10:25:42;;;;;;;6.03;3.50;;;1.30;99.90;;;;;;5114958;28;20031;-66
2024/01/19 10:28:10;;;;;;;6.93;3.58;;;1.40;99.90;;;;;;5114710;28;20375;-65
2024/01/19 10:30:35;;;;;;;6.90;3.55;;;1.30;99.90;;;;;;5114609;28;20019;-65
2024/01/19 10:33:06;;;;;;;6.45;3.17;;;1.40;99.90;;;;;;5110489;28;20020;-65
2024/01/19 10:35:31;;;;;;;10.98;3.63;;;1.40;99.90;;;;;;5077219;28;20476;-64
2024/01/19 10:38:05;;;;;;;5.53;3.25;;;1.40;99.90;;;;;;5073736;28;20038;-65
2024/01/19 10:40:32;;;;;;;7.65;3.95;;;1.30;99.90;;;;;;5073857;28;20021;-64
2024/01/19 10:42:58;;;;;;;6.75;3.53;;;1.40;99.90;;;;;;5075065;28;20056;-64
2024/01/19 10:45:29;;;;;;;6.00;3.58;;;1.40;99.90;;;;;;5073946;28;20063;-64
2024/01/19 10:48:00;;;;;;;11.43;3.78;;;1.50;99.90;;;;;;5074186;28;20031;-64
2024/01/19 10:50:28;;;;;;;6.20;3.17;;;;;;;;;;5074108;28;20124;-65
2024/01/19 10:52:55;;;;;;;7.55;3.45;;;1.70;99.90;;;;;;5068700;28;20127;-65
2024/01/19 10:55:29;;;;;;;7.80;3.88;;;1.70;99.90;;;;;;5035831;28;20411;-65
2024/01/19 10:58:04;;;;;;;10.68;3.58;;;1.70;99.90;;;;;;5053740;28;20090;-65
2024/01/19 11:00:30;;;;;;;4.82;2.70;;;1.70;99.90;;;;;;5036063;28;20492;-64
2024/01/19 11:02:58;;;;;;;7.00;3.10;;;1.70;99.40;;;;;;5053801;28;20029;-65
2024/01/19 11:05:24;;;;;;;8.38;3.50;;;1.70;99.50;;;;;;5073703;28;20098;-64
2024/01/19 11:07:55;;;;;;;6.13;3.15;;;1.70;99.30;;;;;;5073399;28;20411;-64
2024/01/19 11:10:22;;;;;;;3.92;2.22;;;1.70;99.50;;;;;;5056277;28;20032;-65
2024/01/19 11:12:55;;;;;;;6.45;2.72;;;1.80;98.70;;;;;;5072347;28;20029;-64
2024/01/19 11:15:49;;;;;;;7.22;3.20;;;1.80;98.90;;;;;;5067800;28;20108;-65
2024/01/19 11:18:15;;;;;;;4.35;2.78;;;1.90;99.00;;;;;;5073490;28;20056;-64
2024/01/19 11:20:41;;;;;;;9.00;3.45;;;2.00;98.90;;;;;;5072600;28;20504;-65
2024/01/19 11:23:07;;;;;;;7.57;2.85;;;1.90;98.60;;;;;;5073586;28;20056;-64
2024/01/19 11:25:46;;;;;;;7.95;2.97;;;2.00;98.50;;;;;;5073138;28;20043;-65
2024/01/19 11:28:25;;;;;;;8.50;3.25;;;1.90;98.40;;;;;;5055410;28;20028;-64
2024/01/19 11:31:13;;;;;;;8.07;2.92;;;1.90;98.40;;;;;;5072347;28;20059;-65
2024/01/19 11:33:40;;;;;;;6.63;3.03;;;1.90;98.40;;;;;;5042305;28;20128;-65
2024/01/19 11:36:06;;;;;;;4.93;3.13;;;1.90;98.80;;;;;;5069709;28;20094;-65
2024/01/19 11:38:48;;;;;;;12.30;3.17;;;2.00;98.70;;;;;;5056270;28;20028;-65
2024/01/19 11:41:36;;;;;;;7.35;3.25;;;1.90;98.30;;;;;;5055148;28;20035;-65
2024/01/19 11:44:04;;;;;;;7.45;3.15;;;1.90;98.60;;;;;;5073105;28;20039;-65
2024/01/19 11:46:46;;;;;;;7.20;2.70;;;2.00;99.00;;;;;;5055401;28;20123;-65
2024/01/19 11:49:30;;;;;;;6.70;2.90;;;2.10;98.00;;;;;;5073537;28;20036;-66
2024/01/19 11:52:01;;;;;;;8.25;2.83;;;2.10;97.50;;;;;;5055834;28;20036;-64
2024/01/19 11:54:32;;;;;;;4.30;2.40;;;2.10;97.10;;;;;;5061264;28;20044;-65
2024/01/19 11:57:16;;;;;;;7.15;3.00;;;2.10;97.20;;;;;;5057822;28;20041;-65
2024/01/19 11:59:43;;;;;;;6.30;2.90;;;2.00;97.50;;;;;;5057980;28;20040;-65
2024/01/19 12:02:19;;;;;;;5.22;2.60;;;2.10;97.50;;;;;;5056969;28;20464;-66
2024/01/19 12:04:47;;;;;;;5.32;2.88;;;2.10;97.70;;;;;;5056770;28;20381;-65
2024/01/19 12:07:22;;;;;;;6.70;2.90;;;2.20;97.20;;;;;;5056906;28;20373;-65
2024/01/19 12:10:06;;;;;;;7.60;2.85;;;2.20;97.30;;;;;;5038918;28;20461;-65
2024/01/19 12:12:32;;;;;;;8.60;4.03;;;2.30;97.40;;;;;;5056680;28;20083;-65
2024/01/19 12:14:58;;;;;;;11.32;4.05;;;2.40;97.60;;;;;;5051221;28;20032;-65
2024/01/19 12:17:24;;;;;;;9.65;3.67;;;2.40;97.20;;;;;;5058638;28;20032;-64
2024/01/19 12:19:52;;;;;;;8.55;3.60;;;2.60;97.30;;;;;;5076631;28;20025;-65
2024/01/19 12:22:20;;;;;;;7.88;2.95;;;2.50;96.60;;;;;;5055597;28;20025;-65
2024/01/19 12:24:45;;;;;;;5.35;3.08;;;2.40;96.80;;;;;;5038630;28;20116;-64
2024/01/19 12:27:17;;;;;;;7.18;3.50;;;2.40;97.30;;;;;;5038251;28;20086;-64
2024/01/19 12:29:43;;;;;;;6.47;2.70;;;2.40;97.00;;;;;;5056491;28;20025;-65
2024/01/19 12:32:09;;;;;;;9.20;2.72;;;2.30;96.70;;;;;;5056491;28;20079;-64
2024/01/19 12:34:35;;;;;;;4.53;3.03;;;2.40;97.00;;;;;;5066413;28;20033;-65
2024/01/19 12:37:01;;;;;;;6.75;3.13;;;3.00;97.60;;;;;;5046862;28;20380;-65
2024/01/19 12:39:27;;;;;;;4.85;2.72;;;2.50;97.00;;;;;;5058742;28;20112;-65
2024/01/19 12:42:05;;;;;;;4.40;2.35;;;2.50;96.70;;;;;;5076727;28;20032;-64
2024/01/19 12:44:31;;;;;;;4.53;2.55;;;2.50;96.40;;;;;;5076550;28;20104;-64
2024/01/19 12:47:01;;;;;;;6.30;3.35;;;2.60;96.50;;;;;;5058395;28;20024;-64
2024/01/19 12:49:27;;;;;;;5.00;2.65;;;3.20;94.80;;;;;;5076166;28;20081;-64
2024/01/19 12:51:52;;;;;;;4.75;2.10;;;3.50;94.00;;;;;;5076277;28;20027;-65
2024/01/19 12:54:19;;;;;;;6.97;2.58;;;3.50;93.40;;;;;;5087127;28;20052;-65